createdAt,value
2022-08-05T00:00:50.101Z,18.29
2022-08-05T00:01:51.273Z,18.36
2022-08-05T00:02:55.157Z,18.30
2022-08-05T00:03:57.596Z,18.31
2022-08-05T00:05:00.194Z,18.29
2022-08-05T00:06:22.077Z,18.32
2022-08-05T00:07:26.789Z,18.34
2022-08-05T00:08:34.950Z,18.33
2022-08-05T00:09:19.744Z,18.33
2022-08-05T00:10:20.639Z,18.35
2022-08-05T00:11:34.484Z,18.36
2022-08-05T00:12:28.806Z,18.38
2022-08-05T00:13:38.715Z,18.52
2022-08-05T00:14:40.186Z,18.53
2022-08-05T00:15:54.969Z,18.53
2022-08-05T00:16:52.433Z,18.58
2022-08-05T00:17:51.372Z,18.50
2022-08-05T00:18:53.427Z,18.48
2022-08-05T00:20:01.886Z,18.51
2022-08-05T00:20:59.958Z,18.48
2022-08-05T00:22:03.213Z,18.45
2022-08-05T00:23:13.024Z,18.45
2022-08-05T00:24:16.124Z,18.40
2022-08-05T00:25:14.972Z,18.47
2022-08-05T00:26:19.372Z,18.47
2022-08-05T00:27:21.741Z,18.53
2022-08-05T00:28:29.703Z,18.49
2022-08-05T00:29:32.951Z,18.32
2022-08-05T00:30:34.044Z,18.43
2022-08-05T00:31:53.635Z,18.33
2022-08-05T00:32:40.654Z,18.47
2022-08-05T00:34:56.410Z,18.46
2022-08-05T00:35:03.689Z,18.59
2022-08-05T00:36:16.333Z,18.58
2022-08-05T00:37:13.159Z,18.60
2022-08-05T00:37:59.518Z,18.57
2022-08-05T00:39:03.807Z,18.51
2022-08-05T00:40:09.396Z,18.53
2022-08-05T00:41:12.281Z,18.52
2022-08-05T00:42:31.956Z,18.35
2022-08-05T00:43:18.912Z,18.34
2022-08-05T00:44:20.999Z,18.36
2022-08-05T00:45:37.875Z,18.16
2022-08-05T00:46:42.634Z,18.40
2022-08-05T00:47:56.367Z,18.34
2022-08-05T00:48:51.530Z,18.27
2022-08-05T00:49:44.779Z,18.31
2022-08-05T00:50:48.780Z,18.39
2022-08-05T00:51:52.384Z,18.38
2022-08-05T00:52:55.489Z,18.33
2022-08-05T00:54:02.722Z,18.34
2022-08-05T00:55:03.545Z,18.37
2022-08-05T00:56:07.699Z,18.33
2022-08-05T00:57:10.416Z,18.18
2022-08-05T00:58:14.586Z,18.04
2022-08-05T00:59:16.742Z,18.07
2022-08-05T01:00:20.002Z,17.96
2022-08-05T01:01:42.205Z,18.05
2022-08-05T01:02:27.265Z,18.03
2022-08-05T01:03:33.333Z,17.99
2022-08-05T01:04:33.647Z,18.07
2022-08-05T01:05:36.151Z,18.09
2022-08-05T01:06:38.396Z,18.07
2022-08-05T01:07:41.541Z,17.99
2022-08-05T01:08:44.977Z,17.97
2022-08-05T01:09:55.536Z,17.94
2022-08-05T01:11:06.488Z,17.92
2022-08-05T01:12:18.628Z,17.92
2022-08-05T01:13:58.611Z,18.02
2022-08-05T01:14:49.766Z,17.98
2022-08-05T01:15:55.519Z,17.83
2022-08-05T01:17:12.261Z,17.92
2022-08-05T01:18:17.841Z,17.96
2022-08-05T01:20:02.184Z,17.99
2022-08-05T01:21:01.907Z,17.90
2022-08-05T01:22:30.816Z,17.91
2022-08-05T01:24:13.218Z,17.70
2022-08-05T01:25:53.705Z,17.73
2022-08-05T01:27:17.528Z,17.65
2022-08-05T01:28:25.658Z,17.63
2022-08-05T01:29:39.963Z,17.71
2022-08-05T01:30:53.802Z,17.73
2022-08-05T01:31:54.386Z,17.82
2022-08-05T01:32:58.946Z,17.83
2022-08-05T01:34:13.900Z,17.70
2022-08-05T01:35:51.756Z,17.72
2022-08-05T01:36:28.222Z,17.65
2022-08-05T01:37:37.076Z,17.54
2022-08-05T01:38:42.482Z,17.47
2022-08-05T01:39:48.031Z,17.51
2022-08-05T01:40:52.364Z,17.46
2022-08-05T01:41:56.641Z,17.56
2022-08-05T01:43:01.718Z,17.66
2022-08-05T01:44:09.974Z,17.64
2022-08-05T01:45:14.479Z,17.64
2022-08-05T01:46:42.985Z,17.64
2022-08-05T01:47:38.974Z,17.64
2022-08-05T01:48:35.255Z,17.57
2022-08-05T01:50:00.287Z,17.61
2022-08-05T01:50:51.294Z,17.54
2022-08-05T01:51:49.744Z,17.59
2022-08-05T01:52:57.419Z,17.61
2022-08-05T01:54:02.161Z,17.38
2022-08-05T01:55:10.848Z,17.44
2022-08-05T01:58:11.776Z,17.50
2022-08-05T01:58:13.736Z,17.55
2022-08-05T01:58:40.901Z,17.62
2022-08-05T01:59:39.956Z,17.62
2022-08-05T02:00:48.600Z,17.51
2022-08-05T02:01:54.770Z,17.51
2022-08-05T02:03:03.517Z,17.58
2022-08-05T02:04:07.772Z,17.68
2022-08-05T02:05:14.144Z,17.60
2022-08-05T02:06:36.928Z,17.66
2022-08-05T02:07:23.692Z,17.65
2022-08-05T02:08:29.733Z,17.62
2022-08-05T02:09:30.562Z,17.62
2022-08-05T02:10:38.115Z,17.63
2022-08-05T02:11:48.093Z,17.62
2022-08-05T02:14:14.497Z,17.84
2022-08-05T02:15:33.376Z,17.45
2022-08-05T02:16:36.090Z,17.52
2022-08-05T02:18:31.560Z,17.51
2022-08-05T02:19:00.308Z,17.47
2022-08-05T02:20:07.041Z,17.41
2022-08-05T02:21:14.802Z,17.52
2022-08-05T02:22:26.628Z,17.62
2022-08-05T02:23:27.870Z,17.46
2022-08-05T02:24:33.696Z,17.57
2022-08-05T02:25:50.286Z,17.69
2022-08-05T02:26:54.574Z,17.55
2022-08-05T02:27:58.048Z,17.69
2022-08-05T02:29:02.251Z,17.68
2022-08-05T02:30:09.705Z,17.62
2022-08-05T02:31:24.390Z,17.58
2022-08-05T02:32:31.415Z,17.68
2022-08-05T02:33:38.753Z,17.64
2022-08-05T02:34:42.774Z,17.69
2022-08-05T02:35:56.226Z,17.84
2022-08-05T02:36:59.482Z,17.68
2022-08-05T02:38:02.152Z,17.75
2022-08-05T02:39:08.852Z,17.76
2022-08-05T02:40:16.033Z,17.79
2022-08-05T02:41:20.501Z,17.75
2022-08-05T02:42:26.023Z,17.91
2022-08-05T02:43:32.347Z,17.87
2022-08-05T02:44:38.990Z,17.99
2022-08-05T02:45:51.456Z,18.03
2022-08-05T02:46:59.720Z,18.03
2022-08-05T02:48:07.405Z,18.13
2022-08-05T02:48:58.993Z,18.18
2022-08-05T02:50:02.295Z,18.19
2022-08-05T02:51:05.877Z,18.19
2022-08-05T02:52:29.652Z,18.01
2022-08-05T02:53:24.317Z,17.97
2022-08-05T02:54:35.047Z,18.00
2022-08-05T02:55:54.300Z,18.03
2022-08-05T02:56:39.211Z,18.04
2022-08-05T02:58:10.887Z,18.18
2022-08-05T02:58:51.408Z,18.16
2022-08-05T02:59:54.955Z,18.11
2022-08-05T03:01:00.859Z,18.09
2022-08-05T03:02:05.631Z,18.25
2022-08-05T03:03:10.467Z,18.22
2022-08-05T03:04:14.484Z,18.20
2022-08-05T03:05:21.919Z,18.12
2022-08-05T03:06:56.561Z,18.12
2022-08-05T03:08:00.526Z,18.22
2022-08-05T03:08:36.837Z,18.28
2022-08-05T03:09:51.621Z,18.32
2022-08-05T03:11:53.327Z,18.38
2022-08-05T03:11:58.055Z,18.42
2022-08-05T03:14:03.022Z,18.47
2022-08-05T03:15:06.791Z,18.45
2022-08-05T03:16:09.626Z,18.49
2022-08-05T03:17:13.732Z,18.52
2022-08-05T03:18:17.419Z,18.55
2022-08-05T03:19:33.544Z,18.55
2022-08-05T03:20:24.494Z,18.49
2022-08-05T03:21:28.889Z,18.53
2022-08-05T03:22:32.841Z,18.53
2022-08-05T03:23:38.363Z,18.53
2022-08-05T03:24:44.623Z,18.62
2022-08-05T03:26:04.628Z,18.66
2022-08-05T03:26:53.152Z,18.68
2022-08-05T03:28:00.255Z,18.65
2022-08-05T03:29:01.443Z,18.64
2022-08-05T03:30:08.403Z,18.67
2022-08-05T03:31:09.481Z,18.65
2022-08-05T03:32:14.606Z,18.68
2022-08-05T03:33:17.657Z,18.56
2022-08-05T03:34:20.292Z,18.58
2022-08-05T03:35:24.811Z,18.63
2022-08-05T03:36:30.346Z,18.42
2022-08-05T03:37:31.167Z,18.31
2022-08-05T03:38:38.763Z,18.52
2022-08-05T03:40:01.647Z,18.59
2022-08-05T03:41:03.978Z,18.65
2022-08-05T03:42:06.677Z,18.48
2022-08-05T03:43:58.634Z,18.35
2022-08-05T03:44:12.989Z,18.30
2022-08-05T03:45:22.176Z,18.40
2022-08-05T03:46:21.460Z,18.46
2022-08-05T03:47:25.911Z,18.29
2022-08-05T03:48:30.436Z,18.45
2022-08-05T03:49:51.443Z,18.41
2022-08-05T03:50:46.829Z,18.37
2022-08-05T03:55:49.977Z,18.45
2022-08-05T03:56:00.847Z,18.51
2022-08-05T03:56:11.556Z,18.31
2022-08-05T03:57:16.374Z,18.45
2022-08-05T03:58:22.358Z,18.42
2022-08-05T03:59:47.101Z,18.42
2022-08-05T04:00:46.453Z,18.45
2022-08-05T04:01:52.365Z,18.36
2022-08-05T04:02:58.383Z,18.42
2022-08-05T04:04:10.106Z,18.49
2022-08-05T04:05:09.847Z,18.42
2022-08-05T04:06:12.941Z,18.48
2022-08-05T04:07:16.271Z,18.56
2022-08-05T04:08:34.747Z,18.65
2022-08-05T04:09:26.811Z,18.76
2022-08-05T04:10:37.186Z,18.74
2022-08-05T04:11:47.441Z,18.79
2022-08-05T04:13:50.120Z,18.79
2022-08-05T04:14:46.964Z,18.82
2022-08-05T04:15:52.845Z,18.83
2022-08-05T04:16:54.461Z,18.83
2022-08-05T04:17:59.988Z,18.92
2022-08-05T04:19:01.953Z,18.88
2022-08-05T04:20:05.276Z,18.92
2022-08-05T04:21:11.149Z,18.90
2022-08-05T04:22:14.467Z,18.95
2022-08-05T04:23:18.839Z,18.96
2022-08-05T04:24:22.939Z,18.97
2022-08-05T04:25:57.853Z,18.89
2022-08-05T04:26:32.259Z,18.93
2022-08-05T04:27:41.532Z,18.98
2022-08-05T04:28:37.524Z,18.87
2022-08-05T04:29:41.601Z,18.88
2022-08-05T04:30:45.101Z,18.89
2022-08-05T04:31:48.542Z,18.62
2022-08-05T04:32:51.692Z,18.89
2022-08-05T04:34:19.158Z,18.90
2022-08-05T04:34:58.071Z,18.86
2022-08-05T04:36:11.095Z,18.85
2022-08-05T04:37:04.430Z,18.82
2022-08-05T04:38:07.094Z,18.87
2022-08-05T04:39:09.248Z,18.85
2022-08-05T04:40:14.102Z,18.91
2022-08-05T04:41:18.371Z,18.90
2022-08-05T04:42:20.760Z,18.87
2022-08-05T04:43:24.711Z,18.87
2022-08-05T04:44:30.266Z,18.91
2022-08-05T04:45:48.129Z,18.90
2022-08-05T04:46:38.181Z,18.92
2022-08-05T04:47:42.834Z,18.96
2022-08-05T04:48:44.416Z,18.90
2022-08-05T04:50:02.568Z,18.83
2022-08-05T04:51:03.593Z,18.66
2022-08-05T04:52:00.470Z,18.60
2022-08-05T04:53:01.182Z,18.50
2022-08-05T04:54:03.624Z,18.67
2022-08-05T04:55:14.716Z,18.74
2022-08-05T04:56:33.124Z,18.80
2022-08-05T04:57:14.776Z,18.90
2022-08-05T04:58:21.587Z,18.98
2022-08-05T04:59:37.415Z,18.95
2022-08-05T05:00:26.656Z,19.06
2022-08-05T05:01:33.548Z,19.11
2022-08-05T05:02:36.334Z,19.16
2022-08-05T05:03:42.252Z,19.25
2022-08-05T05:04:47.633Z,19.33
2022-08-05T05:06:35.997Z,19.39
2022-08-05T05:06:57.393Z,19.45
2022-08-05T05:07:56.413Z,19.47
2022-08-05T05:08:59.976Z,19.50
2022-08-05T05:10:03.865Z,19.58
2022-08-05T05:11:05.918Z,19.54
2022-08-05T05:12:08.304Z,19.56
2022-08-05T05:13:15.111Z,19.42
2022-08-05T05:14:17.571Z,19.47
2022-08-05T05:15:57.197Z,19.53
2022-08-05T05:16:30.341Z,19.52
2022-08-05T05:17:55.531Z,19.51
2022-08-05T05:18:52.425Z,19.54
2022-08-05T05:19:47.489Z,19.50
2022-08-05T05:20:50.070Z,19.54
2022-08-05T05:21:55.685Z,19.45
2022-08-05T05:22:58.162Z,19.46
2022-08-05T05:24:04.113Z,19.45
2022-08-05T05:25:16.420Z,19.42
2022-08-05T05:26:10.526Z,19.46
2022-08-05T05:27:16.233Z,19.47
2022-08-05T05:28:18.076Z,19.38
2022-08-05T05:29:20.247Z,19.38
2022-08-05T05:30:29.770Z,19.43
2022-08-05T05:31:35.972Z,19.40
2022-08-05T05:32:33.033Z,19.40
2022-08-05T05:33:43.378Z,19.47
2022-08-05T05:34:39.233Z,19.43
2022-08-05T05:35:42.515Z,19.48
2022-08-05T05:36:47.025Z,19.50
2022-08-05T05:38:00.213Z,19.48
2022-08-05T05:38:58.143Z,19.43
2022-08-05T05:40:01.103Z,19.51
2022-08-05T05:41:03.384Z,19.52
2022-08-05T05:42:07.851Z,19.48
2022-08-05T05:43:10.334Z,19.46
2022-08-05T05:44:35.980Z,19.46
2022-08-05T05:45:17.495Z,19.42
2022-08-05T05:46:19.763Z,19.42
2022-08-05T05:47:30.588Z,19.36
2022-08-05T05:48:28.116Z,19.43
2022-08-05T05:49:30.501Z,19.39
2022-08-05T05:50:35.315Z,19.43
2022-08-05T05:51:49.541Z,19.41
2022-08-05T05:52:46.528Z,19.37
2022-08-05T05:53:57.865Z,19.37
2022-08-05T05:54:53.925Z,19.33
2022-08-05T05:56:01.071Z,19.28
2022-08-05T05:57:00.513Z,19.28
2022-08-05T05:58:03.012Z,19.31
2022-08-05T05:59:07.598Z,19.27
2022-08-05T06:00:15.498Z,19.24
2022-08-05T06:01:17.948Z,19.26
2022-08-05T06:02:25.304Z,19.26
2022-08-05T06:03:53.818Z,19.25
2022-08-05T06:04:30.525Z,19.31
2022-08-05T06:05:32.866Z,19.40
2022-08-05T06:06:36.122Z,19.47
2022-08-05T06:07:41.730Z,19.47
2022-08-05T06:08:42.334Z,19.47
2022-08-05T06:10:00.149Z,19.54
2022-08-05T06:10:52.523Z,19.54
2022-08-05T06:11:59.972Z,19.49
2022-08-05T06:12:59.653Z,19.52
2022-08-05T06:14:02.200Z,19.55
2022-08-05T06:15:06.217Z,19.55
2022-08-05T06:16:30.386Z,19.59
2022-08-05T06:17:22.476Z,19.62
2022-08-05T06:18:18.647Z,19.65
2022-08-05T06:19:26.228Z,19.68
2022-08-05T06:20:25.308Z,19.69
2022-08-05T06:21:36.866Z,19.60
2022-08-05T06:22:34.318Z,19.68
2022-08-05T06:23:44.103Z,19.64
2022-08-05T06:24:48.186Z,19.61
2022-08-05T06:26:13.360Z,19.76
2022-08-05T06:26:53.175Z,19.80
2022-08-05T06:28:11.135Z,19.84
2022-08-05T06:29:03.293Z,19.83
2022-08-05T06:30:17.853Z,19.89
2022-08-05T06:31:17.695Z,19.92
2022-08-05T06:32:24.959Z,19.89
2022-08-05T06:33:33.101Z,19.84
2022-08-05T06:34:26.471Z,19.90
2022-08-05T06:36:08.093Z,19.88
2022-08-05T06:36:45.984Z,19.83
2022-08-05T06:37:55.796Z,19.74
2022-08-05T06:38:47.088Z,19.80
2022-08-05T06:39:46.481Z,19.72
2022-08-05T06:40:49.408Z,19.85
2022-08-05T06:41:51.734Z,19.83
2022-08-05T06:42:54.496Z,19.90
2022-08-05T06:44:00.294Z,19.89
2022-08-05T06:45:05.359Z,19.89
2022-08-05T06:46:07.137Z,19.89
2022-08-05T06:47:10.322Z,19.93
2022-08-05T06:48:53.483Z,19.86
2022-08-05T06:49:17.824Z,19.74
2022-08-05T06:50:21.846Z,19.76
2022-08-05T06:51:29.966Z,19.83
2022-08-05T06:52:36.876Z,19.94
2022-08-05T06:53:32.837Z,19.98
2022-08-05T06:54:37.103Z,20.01
2022-08-05T06:55:42.055Z,20.00
2022-08-05T06:56:54.923Z,19.99
2022-08-05T06:58:02.506Z,19.98
2022-08-05T06:58:52.180Z,20.14
2022-08-05T06:59:56.493Z,20.12
2022-08-05T07:01:01.702Z,20.09
2022-08-05T07:02:04.183Z,20.12
2022-08-05T07:03:07.502Z,20.10
2022-08-05T07:04:10.553Z,20.14
2022-08-05T07:05:15.366Z,20.12
2022-08-05T07:06:20.777Z,20.16
2022-08-05T07:07:24.155Z,20.18
2022-08-05T07:08:27.917Z,20.14
2022-08-05T07:09:32.544Z,20.07
2022-08-05T07:10:38.317Z,19.93
2022-08-05T07:11:40.901Z,20.03
2022-08-05T07:12:43.790Z,20.04
2022-08-05T07:13:58.804Z,20.01
2022-08-05T07:14:53.968Z,20.08
2022-08-05T07:16:01.847Z,20.06
2022-08-05T07:17:59.045Z,19.93
2022-08-05T07:18:09.819Z,20.04
2022-08-05T07:19:10.936Z,20.05
2022-08-05T07:20:33.103Z,20.10
2022-08-05T07:21:25.847Z,20.10
2022-08-05T07:22:28.858Z,20.04
2022-08-05T07:23:29.954Z,20.13
2022-08-05T07:24:35.013Z,20.16
2022-08-05T07:25:55.070Z,20.28
2022-08-05T07:26:43.270Z,20.34
2022-08-05T07:27:58.180Z,20.28
2022-08-05T07:29:00.083Z,20.25
2022-08-05T07:30:27.479Z,20.35
2022-08-05T07:31:07.945Z,20.43
2022-08-05T07:32:10.751Z,20.42
2022-08-05T07:33:16.865Z,20.50
2022-08-05T07:34:21.479Z,20.45
2022-08-05T07:35:56.766Z,20.43
2022-08-05T07:36:26.239Z,20.53
2022-08-05T07:37:35.975Z,20.59
2022-08-05T07:38:43.270Z,20.56
2022-08-05T07:40:04.014Z,20.56
2022-08-05T07:40:44.954Z,20.61
2022-08-05T07:42:07.991Z,20.67
2022-08-05T07:42:52.413Z,20.62
2022-08-05T07:43:56.870Z,20.69
2022-08-05T07:45:00.443Z,20.72
2022-08-05T07:46:03.375Z,20.65
2022-08-05T07:47:07.988Z,20.58
2022-08-05T07:48:11.227Z,20.54
2022-08-05T07:49:16.415Z,20.51
2022-08-05T07:50:24.969Z,20.58
2022-08-05T07:51:37.175Z,20.54
2022-08-05T07:52:29.232Z,20.56
2022-08-05T07:53:36.833Z,20.28
2022-08-05T07:54:38.637Z,20.49
2022-08-05T07:55:44.335Z,20.54
2022-08-05T07:57:02.672Z,20.55
2022-08-05T07:57:51.241Z,20.61
2022-08-05T07:58:57.786Z,20.65
2022-08-05T07:59:58.393Z,20.36
2022-08-05T08:01:01.059Z,20.10
2022-08-05T08:02:05.483Z,20.23
2022-08-05T08:03:13.578Z,20.33
2022-08-05T08:04:15.935Z,20.27
2022-08-05T08:05:18.557Z,20.34
2022-08-05T08:06:21.357Z,20.36
2022-08-05T08:07:24.532Z,20.19
2022-08-05T08:08:29.123Z,20.22
2022-08-05T08:09:31.425Z,20.27
2022-08-05T08:10:34.055Z,20.19
2022-08-05T08:11:47.653Z,20.31
2022-08-05T08:12:49.288Z,20.42
2022-08-05T08:13:49.527Z,20.28
2022-08-05T08:14:52.317Z,20.16
2022-08-05T08:16:35.199Z,20.25
2022-08-05T08:16:59.184Z,20.31
2022-08-05T08:18:04.261Z,20.44
2022-08-05T08:19:06.961Z,20.45
2022-08-05T08:20:43.401Z,20.38
2022-08-05T08:21:17.679Z,20.40
2022-08-05T08:22:23.866Z,20.40
2022-08-05T08:24:01.279Z,20.61
2022-08-05T08:24:50.961Z,20.79
2022-08-05T08:26:00.854Z,20.83
2022-08-05T08:26:45.841Z,21.02
2022-08-05T08:27:51.404Z,21.14
2022-08-05T08:28:59.072Z,21.25
2022-08-05T08:30:06.484Z,21.24
2022-08-05T08:31:01.766Z,21.20
2022-08-05T08:32:06.403Z,21.53
2022-08-05T08:33:13.916Z,21.64
2022-08-05T08:34:18.556Z,21.68
2022-08-05T08:35:21.474Z,21.66
2022-08-05T08:36:38.691Z,21.65
2022-08-05T08:37:29.910Z,21.69
2022-08-05T08:38:35.665Z,21.74
2022-08-05T08:39:38.417Z,21.78
2022-08-05T08:40:45.701Z,21.72
2022-08-05T08:41:50.849Z,21.75
2022-08-05T08:42:53.727Z,21.89
2022-08-05T08:45:18.819Z,22.11
2022-08-05T08:45:19.669Z,22.42
2022-08-05T08:46:09.996Z,22.43
2022-08-05T08:47:47.779Z,22.35
2022-08-05T08:48:36.116Z,22.42
2022-08-05T08:50:23.287Z,22.29
2022-08-05T08:50:52.866Z,22.08
2022-08-05T08:52:03.573Z,22.13
2022-08-05T08:52:47.371Z,22.22
2022-08-05T08:53:49.244Z,22.25
2022-08-05T08:54:52.430Z,22.19
2022-08-05T08:56:02.613Z,22.19
2022-08-05T08:57:00.877Z,22.28
2022-08-05T08:58:03.153Z,22.25
2022-08-05T08:59:10.006Z,22.13
2022-08-05T09:00:11.488Z,22.05
2022-08-05T09:01:18.276Z,22.01
2022-08-05T09:02:23.103Z,21.89
2022-08-05T09:03:28.498Z,22.01
2022-08-05T09:04:37.105Z,21.93
2022-08-05T09:06:07.582Z,21.89
2022-08-05T09:06:46.048Z,21.90
2022-08-05T09:07:56.713Z,22.06
2022-08-05T09:08:59.265Z,22.23
2022-08-05T09:10:02.674Z,22.35
2022-08-05T09:11:08.399Z,22.41
2022-08-05T09:12:30.028Z,22.51
2022-08-05T09:13:17.350Z,22.36
2022-08-05T09:14:56.383Z,22.34
2022-08-05T09:15:24.615Z,22.27
2022-08-05T09:16:28.028Z,22.23
2022-08-05T09:17:40.526Z,22.21
2022-08-05T09:18:42.635Z,22.28
2022-08-05T09:20:01.462Z,22.24
2022-08-05T09:20:46.367Z,22.27
2022-08-05T09:22:22.911Z,22.21
2022-08-05T09:23:18.766Z,22.41
2022-08-05T09:24:16.530Z,22.51
2022-08-05T09:25:23.736Z,22.51
2022-08-05T09:26:23.986Z,22.25
2022-08-05T09:28:05.788Z,22.59
2022-08-05T09:28:40.946Z,22.76
2022-08-05T09:29:47.508Z,22.96
2022-08-05T09:30:56.685Z,23.04
2022-08-05T09:32:51.179Z,23.06
2022-08-05T09:33:09.285Z,23.10
2022-08-05T09:34:13.545Z,23.06
2022-08-05T09:35:26.428Z,23.05
2022-08-05T09:36:21.797Z,22.99
2022-08-05T09:38:17.953Z,22.89
2022-08-05T09:38:32.296Z,22.84
2022-08-05T09:39:41.441Z,22.83
2022-08-05T09:40:52.571Z,22.70
2022-08-05T09:42:04.193Z,22.60
2022-08-05T09:43:08.479Z,22.61
2022-08-05T09:44:11.175Z,22.54
2022-08-05T09:46:04.865Z,22.51
2022-08-05T09:47:55.598Z,22.71
2022-08-05T09:48:43.232Z,22.61
2022-08-05T09:49:57.079Z,22.68
2022-08-05T09:51:01.856Z,22.67
2022-08-05T09:52:22.984Z,22.63
2022-08-05T09:53:53.410Z,22.66
2022-08-05T09:54:31.843Z,22.67
2022-08-05T09:55:56.860Z,22.71
2022-08-05T09:56:51.459Z,22.65
2022-08-05T09:57:47.091Z,22.66
2022-08-05T10:00:21.732Z,22.86
2022-08-05T10:01:31.789Z,22.80
2022-08-05T10:02:39.724Z,22.95
2022-08-05T10:03:59.497Z,23.00
2022-08-05T10:05:11.627Z,23.14
2022-08-05T10:06:18.798Z,23.13
2022-08-05T10:08:10.449Z,23.14
2022-08-05T10:08:36.206Z,23.18
2022-08-05T10:09:44.832Z,23.12
2022-08-05T10:10:48.267Z,23.13
2022-08-05T10:11:51.675Z,23.15
2022-08-05T10:12:59.754Z,23.19
2022-08-05T10:14:05.482Z,23.23
2022-08-05T10:15:17.191Z,23.36
2022-08-05T10:16:33.980Z,23.37
2022-08-05T10:17:40.707Z,23.14
2022-08-05T10:18:41.013Z,23.46
2022-08-05T10:20:03.534Z,23.64
2022-08-05T10:20:54.871Z,23.67
2022-08-05T10:21:57.754Z,23.63
2022-08-05T10:23:01.131Z,23.69
2022-08-05T10:24:10.574Z,23.57
2022-08-05T10:25:09.519Z,23.56
2022-08-05T10:26:14.890Z,23.58
2022-08-05T10:27:18.561Z,23.56
2022-08-05T10:28:30.370Z,23.37
2022-08-05T10:30:07.209Z,23.38
2022-08-05T10:32:48.711Z,23.41
2022-08-05T10:32:51.665Z,23.32
2022-08-05T10:32:52.340Z,23.38
2022-08-05T10:33:46.310Z,23.35
2022-08-05T10:34:50.916Z,23.40
2022-08-05T10:35:59.199Z,23.37
2022-08-05T10:37:00.019Z,23.40
2022-08-05T10:38:04.908Z,23.25
2022-08-05T10:39:25.223Z,23.20
2022-08-05T10:40:43.439Z,23.40
2022-08-05T10:42:01.067Z,23.73
2022-08-05T10:43:12.482Z,24.02
2022-08-05T10:44:17.546Z,23.84
2022-08-05T10:45:39.890Z,24.00
2022-08-05T10:46:54.411Z,24.13
2022-08-05T10:48:31.478Z,24.27
2022-08-05T10:49:10.094Z,24.29
2022-08-05T10:50:33.286Z,24.24
2022-08-05T10:51:21.877Z,24.27
2022-08-05T10:52:46.974Z,24.33
2022-08-05T10:53:58.272Z,24.33
2022-08-05T10:55:07.766Z,24.25
2022-08-05T10:56:25.228Z,24.26
2022-08-05T10:57:25.746Z,24.33
2022-08-05T10:58:35.741Z,24.32
2022-08-05T11:00:03.223Z,24.41
2022-08-05T11:00:44.111Z,24.64
2022-08-05T11:01:55.128Z,24.63
2022-08-05T11:03:23.720Z,24.70
2022-08-05T11:04:22.972Z,24.68
2022-08-05T11:05:29.261Z,24.68
2022-08-05T11:06:33.591Z,24.79
2022-08-05T11:08:01.733Z,24.72
2022-08-05T11:09:16.776Z,24.82
2022-08-05T11:10:22.711Z,24.95
2022-08-05T11:11:52.792Z,25.03
2022-08-05T11:12:42.832Z,25.01
2022-08-05T11:13:57.853Z,24.95
2022-08-05T11:15:19.300Z,24.95
2022-08-05T11:16:33.754Z,24.95
2022-08-05T11:17:58.883Z,24.78
2022-08-05T11:18:34.688Z,24.70
2022-08-05T11:20:10.500Z,24.59
2022-08-05T11:20:46.810Z,24.51
2022-08-05T11:21:49.738Z,24.49
2022-08-05T11:22:54.101Z,24.57
2022-08-05T11:24:04.359Z,24.69
2022-08-05T11:26:05.849Z,24.76
2022-08-05T11:26:33.415Z,24.82
2022-08-05T11:27:45.801Z,24.92
2022-08-05T11:28:43.122Z,24.83
2022-08-05T11:29:49.741Z,24.88
2022-08-05T11:30:59.099Z,24.94
2022-08-05T11:32:25.111Z,25.01
2022-08-05T11:33:34.492Z,24.99
2022-08-05T11:34:52.037Z,25.09
2022-08-05T11:36:07.752Z,25.06
2022-08-05T11:38:26.474Z,24.96
2022-08-05T11:38:36.525Z,24.86
2022-08-05T11:39:35.416Z,24.76
2022-08-05T11:41:35.426Z,24.83
2022-08-05T11:42:09.318Z,24.88
2022-08-05T11:43:21.097Z,24.89
2022-08-05T11:44:53.123Z,25.01
2022-08-05T11:46:14.933Z,25.00
2022-08-05T11:46:58.634Z,25.10
2022-08-05T11:47:49.511Z,25.20
2022-08-05T11:48:51.384Z,25.22
2022-08-05T11:49:58.102Z,25.30
2022-08-05T11:51:01.014Z,25.20
2022-08-05T11:52:08.817Z,25.30
2022-08-05T11:53:09.826Z,25.35
2022-08-05T11:54:14.847Z,25.34
2022-08-05T11:55:18.621Z,25.28
2022-08-05T11:56:25.400Z,25.26
2022-08-05T11:57:30.616Z,25.25
2022-08-05T11:58:36.689Z,25.33
2022-08-05T11:59:41.406Z,25.30
2022-08-05T12:00:44.460Z,25.27
2022-08-05T12:02:03.303Z,25.26
2022-08-05T12:03:29.105Z,25.28
2022-08-05T12:04:25.132Z,25.43
2022-08-05T12:05:36.478Z,25.41
2022-08-05T12:06:35.250Z,25.52
2022-08-05T12:08:03.274Z,25.50
2022-08-05T12:08:51.918Z,25.59
2022-08-05T12:09:56.447Z,25.56
2022-08-05T12:11:00.038Z,25.41
2022-08-05T12:12:06.178Z,25.61
2022-08-05T12:13:17.431Z,25.66
2022-08-05T12:14:14.124Z,25.63
2022-08-05T12:15:20.288Z,25.71
2022-08-05T12:16:31.190Z,25.88
2022-08-05T12:18:03.342Z,25.86
2022-08-05T12:18:40.389Z,26.01
2022-08-05T12:20:26.511Z,25.96
2022-08-05T12:20:51.735Z,26.05
2022-08-05T12:21:54.022Z,26.19
2022-08-05T12:23:12.398Z,26.14
2022-08-05T12:24:21.350Z,26.10
2022-08-05T12:25:28.513Z,26.00
2022-08-05T12:26:45.462Z,26.07
2022-08-05T12:27:52.938Z,26.15
2022-08-05T12:28:51.890Z,26.21
2022-08-05T12:30:09.754Z,26.17
2022-08-05T12:31:14.653Z,26.24
2022-08-05T12:32:18.472Z,26.13
2022-08-05T12:33:27.924Z,26.16
2022-08-05T12:34:30.075Z,25.93
2022-08-05T12:35:36.890Z,25.66
2022-08-05T12:36:39.413Z,25.80
2022-08-05T12:37:44.615Z,25.79
2022-08-05T12:38:47.918Z,25.76
2022-08-05T12:39:51.805Z,25.80
2022-08-05T12:40:57.027Z,25.81
2022-08-05T12:41:59.710Z,25.76
2022-08-05T12:43:02.058Z,25.88
2022-08-05T12:44:12.823Z,25.99
2022-08-05T12:45:11.778Z,26.09
2022-08-05T12:46:29.244Z,26.09
2022-08-05T12:47:31.332Z,26.12
2022-08-05T12:48:40.026Z,26.15
2022-08-05T12:50:02.209Z,26.20
2022-08-05T12:52:10.816Z,26.20
2022-08-05T12:52:25.361Z,26.29
2022-08-05T12:53:21.774Z,26.42
2022-08-05T12:54:29.964Z,26.55
2022-08-05T12:55:35.411Z,26.48
2022-08-05T12:56:41.499Z,26.58
2022-08-05T12:58:50.751Z,26.44
2022-08-05T12:59:20.761Z,26.51
2022-08-05T13:02:01.384Z,26.52
2022-08-05T13:02:01.799Z,26.05
2022-08-05T13:02:35.132Z,25.80
2022-08-05T13:03:41.575Z,25.80
2022-08-05T13:04:52.536Z,26.15
2022-08-05T13:05:48.396Z,26.30
2022-08-05T13:06:55.009Z,26.27
2022-08-05T13:07:59.981Z,26.24
2022-08-05T13:09:12.652Z,26.40
2022-08-05T13:10:19.851Z,26.47
2022-08-05T13:12:01.503Z,26.60
2022-08-05T13:12:30.862Z,26.73
2022-08-05T13:14:06.427Z,26.67
2022-08-05T13:14:44.276Z,26.67
2022-08-05T13:15:51.086Z,26.73
2022-08-05T13:16:56.926Z,26.52
2022-08-05T13:17:59.472Z,26.52
2022-08-05T13:19:01.898Z,26.76
2022-08-05T13:20:10.623Z,26.92
2022-08-05T13:21:13.751Z,27.02
2022-08-05T13:22:29.773Z,26.93
2022-08-05T13:23:22.721Z,26.93
2022-08-05T13:24:27.564Z,26.92
2022-08-05T13:25:58.615Z,26.89
2022-08-05T13:26:34.417Z,26.85
2022-08-05T13:27:39.277Z,26.78
2022-08-05T13:28:44.117Z,26.70
2022-08-05T13:30:31.487Z,26.66
2022-08-05T13:30:51.132Z,26.44
2022-08-05T13:32:04.464Z,26.45
2022-08-05T13:33:01.080Z,26.58
2022-08-05T13:34:23.868Z,26.50
2022-08-05T13:35:09.283Z,26.56
2022-08-05T13:36:11.893Z,26.65
2022-08-05T13:37:16.284Z,26.70
2022-08-05T13:38:30.373Z,26.67
2022-08-05T13:40:20.104Z,26.80
2022-08-05T13:40:42.509Z,26.80
2022-08-05T13:41:36.064Z,26.79
2022-08-05T13:42:37.943Z,26.84
2022-08-05T13:43:44.529Z,26.78
2022-08-05T13:44:46.796Z,26.81
2022-08-05T13:45:48.996Z,26.83
2022-08-05T13:47:04.746Z,26.90
2022-08-05T13:48:09.444Z,26.98
2022-08-05T13:49:01.924Z,27.03
2022-08-05T13:50:10.384Z,26.99
2022-08-05T13:51:12.425Z,26.81
2022-08-05T13:52:29.025Z,26.98
2022-08-05T13:53:31.625Z,27.01
2022-08-05T13:54:35.868Z,27.10
2022-08-05T13:55:41.864Z,27.01
2022-08-05T13:56:50.783Z,27.08
2022-08-05T13:57:51.622Z,27.08
2022-08-05T13:58:53.221Z,27.14
2022-08-05T13:59:59.495Z,27.19
2022-08-05T14:01:01.372Z,27.12
2022-08-05T14:02:07.278Z,26.96
2022-08-05T14:03:09.820Z,27.10
2022-08-05T14:04:12.226Z,27.13
2022-08-05T14:05:19.420Z,27.06
2022-08-05T14:06:26.333Z,27.01
2022-08-05T14:08:00.276Z,26.77
2022-08-05T14:08:33.070Z,26.54
2022-08-05T14:09:36.925Z,26.45
2022-08-05T14:10:42.348Z,26.49
2022-08-05T14:12:04.511Z,26.47
2022-08-05T14:12:49.820Z,26.50
2022-08-05T14:13:54.958Z,26.46
2022-08-05T14:14:59.014Z,26.42
2022-08-05T14:16:05.143Z,26.42